colorkinetics.com alexa rank chart, colorkinetics.com alexa rank daily changes

colorkinetics.com alexa rank chart, colorkinetics.com alexa rank daily changes

colorkinetics.com
Actual rank:
308 857

RANK HISTORY

Date Rank Diff
2017/08/19 308 857 -3 024
2017/08/18 311 881 -4 907
2017/08/17 316 788 -3 234
2017/08/16 320 022 +28
2017/08/15 319 994 +9 139
2017/08/14 310 855 -2 603
2017/08/13 313 458 -1 313
2017/08/12 314 771 +2 642
2017/08/11 312 129 -11 849
2017/08/10 323 978 -2 876
2017/08/09 326 854 -10 710
2017/08/08 337 564 -22 702
2017/08/07 360 266 +14 276
2017/08/06 345 990 -9 097
2017/08/05 355 087 -4 285
2017/08/04 359 372 -5 350
2017/08/03 364 722 -5 910
2017/08/02 370 632 -4 823
2017/08/01 375 455 +656
2017/07/31 374 799 +9 966
2017/07/30 364 833 +5 426
2017/07/29 359 407 +3 419
2017/07/28 355 988 +3 603
2017/07/27 352 385 -5 702
2017/07/26 358 087 -7 942
2017/07/25 366 029 +13 657
2017/07/24 352 372 -397
2017/07/23 352 769 -20 297
2017/07/22 373 066 +13 468
2017/07/21 359 598 +4 895
2017/07/20 354 703 -12 331
2017/07/19 367 034 +928
2017/07/18 366 106 +4 523
2017/07/17 361 583 +22 271
2017/07/16 339 312 +4 065
2017/07/15 335 247 +3 998
2017/07/14 331 249 +7 326
2017/07/13 323 923 +7 872
2017/07/12 316 051 -9 189
2017/07/11 325 240 +4 519
2017/07/10 320 721 +13 760
2017/07/09 306 961 +7 752
2017/07/08 299 209 +529
2017/07/07 298 680 -7 209
2017/07/06 305 889 -321
2017/07/05 306 210 +187
2017/07/04 306 023 +283
2017/07/03 305 740 +1 670
2017/07/02 304 070 -3 392
2017/07/01 307 462 -16 907
2017/06/30 324 369 -7 105
2017/06/29 331 474 -12 079
2017/06/28 343 553 -2 671
2017/06/27 346 224 +5 524
2017/06/26 340 700 +13 439
2017/06/25 327 261 +8 796
2017/06/24 318 465 -8 916
2017/06/23 327 381 +8 667
2017/06/22 318 714 -15 569
2017/06/21 334 283 +12 856
2017/06/20 321 427

WIDGET FOR YOUR SITE

DOMAINS WITH THE NEAREST RANK

Domain Rank
roberthalf.be 308 852
mantenimiento-seguro.blogspot.pe 308 853
dadsdivorce.com 308 854
davidsw.com 308 855
beaconsnap.com 308 856
colorkinetics.com 308 857
fobby.net 308 858
samspace.ru 308 859
srcity.org 308 860
dzapp.net 308 861
matubusi.com 308 862

DOMAINS WITH THE NEAREST RANK BY TLD .com

Domain Rank
young-and-old.com 308 850
chomatome.com 308 851
dadsdivorce.com 308 854
davidsw.com 308 855
beaconsnap.com 308 856
colorkinetics.com 308 857
matubusi.com 308 862
fantasycpr.com 308 864
gamebizclub.com 308 865
imageupper.com 308 866
classiccinemas.com 308 869